Time;durP1;ratioP1;P1;durP2;ratioP2;P2;SDS_P1;SDS_P2;PMS_P1;PMS_P2;Temp;Humidity;BMP_temperature;BMP_pressure;BME280_temperature;BME280_humidity;BME280_pressure;Samples;Min_cycle;Max_cycle;Signal;HPM_P1;HPM_P2
2022/02/02 00:00:26;;;;;;;1.88;0.80;;;12.30;86.20;;;;;;5097468;28;20081;-70
2022/02/02 00:02:57;;;;;;;1.48;0.80;;;12.30;86.30;;;;;;5097214;28;20020;-70
2022/02/02 00:08:05;;;;;;;1.20;0.80;;;12.30;86.70;;;;;;5094977;28;20051;-68
2022/02/02 00:13:03;;;;;;;1.90;0.90;;;12.30;86.60;;;;;;5098740;28;20087;-69
2022/02/02 00:20:51;;;;;;;1.40;0.85;;;12.20;86.40;;;;;;5096371;28;20024;-68
2022/02/02 00:23:21;;;;;;;1.77;1.17;;;12.20;86.40;;;;;;5095392;28;20028;-69
2022/02/02 00:25:52;;;;;;;1.58;0.80;;;12.20;86.50;;;;;;5092958;28;20031;-68
2022/02/02 00:28:22;;;;;;;1.58;0.90;;;12.20;87.00;;;;;;5096307;28;20020;-68
2022/02/02 00:30:48;;;;;;;1.73;1.00;;;12.20;86.90;;;;;;5106716;28;20384;-68
2022/02/02 00:33:21;;;;;;;1.50;0.90;;;12.20;87.00;;;;;;5103354;28;20091;-68
2022/02/02 00:35:59;;;;;;;2.58;1.00;;;12.20;86.60;;;;;;5103127;28;20039;-68
2022/02/02 00:38:24;;;;;;;1.27;0.80;;;12.20;87.20;;;;;;5096391;28;20063;-68
2022/02/02 00:40:50;;;;;;;1.40;0.85;;;12.20;87.20;;;;;;5093082;28;20070;-69
2022/02/02 00:43:16;;;;;;;1.17;0.73;;;12.30;87.50;;;;;;5096619;28;20020;-68
2022/02/02 00:45:46;;;;;;;1.55;0.70;;;12.30;87.30;;;;;;5096995;28;20411;-68
2022/02/02 00:48:14;;;;;;;1.40;0.85;;;12.30;86.80;;;;;;5096318;28;20020;-69
2022/02/02 00:50:40;;;;;;;1.20;0.77;;;12.30;86.70;;;;;;5096030;28;20031;-69
2022/02/02 00:53:07;;;;;;;1.05;0.80;;;12.30;86.80;;;;;;5093696;28;20020;-68
2022/02/02 00:55:33;;;;;;;1.80;0.90;;;12.30;86.80;;;;;;5092597;28;20072;-68
2022/02/02 00:57:59;;;;;;;0.93;0.68;;;12.30;86.50;;;;;;5098150;28;20074;-68
2022/02/02 01:00:25;;;;;;;1.35;0.70;;;12.30;86.50;;;;;;5096098;28;20516;-68
2022/02/02 01:02:50;;;;;;;1.30;0.82;;;12.30;86.90;;;;;;5096121;28;20109;-70
2022/02/02 01:05:16;;;;;;;1.02;0.80;;;12.30;86.60;;;;;;5095779;28;20024;-70
2022/02/02 01:12:51;;;;;;;1.85;0.90;;;12.30;86.90;;;;;;5096580;28;20044;-71
2022/02/02 01:28:23;;;;;;;1.20;0.80;;;12.20;86.80;;;;;;5105701;28;20112;-70
2022/02/02 01:30:49;;;;;;;2.00;1.10;;;12.30;87.10;;;;;;5096052;28;20020;-70
2022/02/02 01:33:14;;;;;;;1.35;1.00;;;12.20;86.90;;;;;;5098144;28;20024;-69
2022/02/02 01:35:40;;;;;;;1.63;1.00;;;12.20;87.20;;;;;;5102946;28;20042;-69
2022/02/02 01:38:06;;;;;;;2.08;1.10;;;12.20;87.00;;;;;;5094028;28;20110;-70
2022/02/02 01:40:37;;;;;;;1.85;0.82;;;12.10;87.10;;;;;;5091954;28;20032;-70
2022/02/02 01:46:09;;;;;;;1.05;0.70;;;12.20;87.10;;;;;;5085406;28;20036;-70
2022/02/02 01:49:02;;;;;;;1.23;0.70;;;12.20;88.10;;;;;;5095227;28;20020;-70
2022/02/02 01:54:04;;;;;;;1.35;0.95;;;12.10;87.40;;;;;;5095104;28;20027;-69
2022/02/02 01:56:29;;;;;;;0.90;0.57;;;12.20;87.50;;;;;;5079114;28;20043;-69
2022/02/02 01:59:09;;;;;;;1.92;0.90;;;12.20;87.10;;;;;;5092513;28;20024;-70
2022/02/02 02:01:35;;;;;;;1.25;0.70;;;12.20;87.10;;;;;;5091233;28;20115;-69
2022/02/02 02:04:00;;;;;;;1.13;0.75;;;12.20;87.20;;;;;;5096617;28;20103;-71
2022/02/02 02:06:26;;;;;;;1.17;0.88;;;12.10;87.20;;;;;;5094955;28;20036;-70
2022/02/02 02:08:53;;;;;;;1.38;1.00;;;12.10;87.20;;;;;;5094749;28;20564;-69
2022/02/02 02:11:21;;;;;;;1.80;0.63;;;12.10;87.20;;;;;;5075372;28;20487;-70
2022/02/02 02:16:15;;;;;;;1.35;0.80;;;12.10;87.40;;;;;;5094849;28;20036;-69
2022/02/02 02:18:41;;;;;;;1.17;0.70;;;12.10;87.30;;;;;;5095220;28;20027;-69
2022/02/02 02:21:12;;;;;;;1.65;0.63;;;12.10;87.10;;;;;;5094823;28;20373;-69
2022/02/02 02:23:38;;;;;;;0.90;0.70;;;12.10;87.60;;;;;;5094645;28;20024;-69
2022/02/02 02:26:05;;;;;;;1.20;0.60;;;12.10;87.50;;;;;;5093324;28;20060;-70
2022/02/02 02:31:13;;;;;;;1.23;0.68;;;12.10;87.20;;;;;;5096667;28;20103;-70
2022/02/02 02:34:22;;;;;;;0.93;0.60;;;12.10;87.30;;;;;;5102213;28;20039;-70
2022/02/02 02:39:20;;;;;;;1.00;0.80;;;12.00;86.60;;;;;;5094507;28;20106;-70
2022/02/02 02:58:57;;;;;;;0.50;0.43;;;12.00;86.70;;;;;;5099558;28;20142;-69
2022/02/02 03:01:32;;;;;;;1.42;0.50;;;12.00;86.90;;;;;;5098595;28;20040;-70
2022/02/02 03:31:29;;;;;;;1.10;0.82;;;12.00;86.40;;;;;;5012982;28;20534;-69
2022/02/02 03:51:08;;;;;;;0.98;0.50;;;12.00;86.60;;;;;;5086701;28;20030;-69
2022/02/02 03:58:43;;;;;;;0.60;0.40;;;11.80;86.30;;;;;;5093685;28;20078;-69
2022/02/02 04:06:15;;;;;;;0.60;0.30;;;11.80;86.10;;;;;;5100325;28;20069;-73
2022/02/02 04:08:41;;;;;;;0.60;0.40;;;11.80;86.00;;;;;;5099795;28;20016;-69
2022/02/02 04:11:15;;;;;;;0.52;0.50;;;11.80;85.80;;;;;;5098824;28;20053;-69
2022/02/02 04:52:07;;;;;;;0.30;0.30;;;11.60;84.80;;;;;;5025803;28;20041;-68
2022/02/02 04:54:48;;;;;;;0.50;0.30;;;11.60;85.90;;;;;;5025039;28;20091;-69
2022/02/02 04:57:45;;;;;;;0.45;0.30;;;11.70;84.80;;;;;;5019365;28;20598;-71
2022/02/02 05:53:06;;;;;;;0.90;0.20;;;11.70;83.80;;;;;;5094096;28;20534;-68
2022/02/02 05:55:38;;;;;;;1.38;0.25;;;11.70;83.70;;;;;;5091700;28;20161;-69
2022/02/02 05:58:07;;;;;;;0.97;0.27;;;11.60;83.70;;;;;;5097077;28;20032;-69
2022/02/02 06:00:36;;;;;;;0.88;0.20;;;11.60;83.50;;;;;;5095142;28;20036;-68
2022/02/02 06:03:08;;;;;;;0.93;0.30;;;11.60;83.80;;;;;;5094785;28;20035;-68
2022/02/02 06:05:34;;;;;;;1.60;0.20;;;11.60;84.00;;;;;;5093549;28;20060;-68
2022/02/02 06:08:02;;;;;;;0.40;0.10;;;11.70;84.10;;;;;;5092814;28;20020;-69
2022/02/02 06:10:30;;;;;;;1.58;0.25;;;11.80;84.20;;;;;;5085517;28;20037;-69
2022/02/02 06:13:00;;;;;;;1.88;0.40;;;11.80;84.00;;;;;;5078651;28;20496;-69
2022/02/02 06:15:26;;;;;;;2.08;0.30;;;11.80;83.90;;;;;;5093124;28;20126;-69
2022/02/02 06:17:53;;;;;;;2.30;0.30;;;11.80;83.60;;;;;;5094201;28;20121;-69
2022/02/02 06:20:19;;;;;;;0.82;0.30;;;11.80;83.80;;;;;;5076642;28;20495;-69
2022/02/02 06:23:14;;;;;;;1.92;0.30;;;11.80;83.40;;;;;;5090542;28;20362;-69
2022/02/02 06:25:46;;;;;;;1.95;0.30;;;11.70;83.50;;;;;;5072259;28;20035;-69
2022/02/02 06:28:20;;;;;;;2.10;0.60;;;11.70;83.40;;;;;;5104630;28;20526;-69
2022/02/02 06:30:57;;;;;;;0.95;0.30;;;11.70;83.30;;;;;;5095571;28;20384;-69
2022/02/02 06:33:30;;;;;;;2.45;0.32;;;11.70;83.90;;;;;;5099735;28;20064;-69
2022/02/02 06:35:56;;;;;;;1.25;0.28;;;11.60;83.60;;;;;;5099179;28;20450;-68
2022/02/02 06:38:23;;;;;;;1.75;0.47;;;11.70;84.00;;;;;;5094474;28;20055;-68
2022/02/02 06:40:51;;;;;;;1.38;0.40;;;11.70;83.60;;;;;;5090521;28;20032;-69
2022/02/02 06:43:18;;;;;;;2.22;0.50;;;11.70;83.70;;;;;;5076624;28;20028;-68
2022/02/02 06:45:44;;;;;;;1.35;0.32;;;11.70;83.60;;;;;;5095011;28;20093;-68
2022/02/02 06:48:10;;;;;;;2.83;0.45;;;11.70;83.90;;;;;;5094691;28;20051;-68
2022/02/02 06:50:40;;;;;;;2.28;0.50;;;11.70;83.50;;;;;;5094542;28;20052;-68
2022/02/02 06:56:02;;;;;;;2.40;0.55;;;11.70;83.90;;;;;;5073563;28;20488;-69
2022/02/02 06:58:53;;;;;;;1.27;0.68;;;11.70;83.70;;;;;;5073142;28;20016;-69
2022/02/02 07:01:37;;;;;;;2.60;0.60;;;11.70;83.70;;;;;;5104421;28;20462;-69
2022/02/02 07:04:33;;;;;;;2.97;0.55;;;11.70;83.50;;;;;;5095791;28;20054;-69
2022/02/02 07:07:07;;;;;;;2.33;0.40;;;11.70;83.70;;;;;;5092631;28;20455;-69
2022/02/02 07:12:34;;;;;;;2.47;0.47;;;11.60;83.40;;;;;;5094069;28;20032;-69
2022/02/02 07:15:30;;;;;;;2.83;0.40;;;11.60;83.40;;;;;;5076162;28;20044;-69
2022/02/02 07:18:13;;;;;;;4.30;0.77;;;11.60;83.20;;;;;;5093723;28;20448;-68
2022/02/02 07:34:12;;;;;;;3.08;0.55;;;11.60;82.60;;;;;;5056085;28;20029;-68
2022/02/02 07:36:43;;;;;;;2.53;0.52;;;11.60;82.80;;;;;;5055501;28;20128;-69
2022/02/02 07:39:12;;;;;;;4.30;0.50;;;11.60;82.70;;;;;;5049114;28;20082;-69
2022/02/02 07:41:44;;;;;;;4.07;0.70;;;11.60;82.50;;;;;;5051844;28;20642;-68
2022/02/02 07:44:16;;;;;;;2.25;0.47;;;11.60;82.50;;;;;;5063019;28;20646;-68
2022/02/02 07:46:48;;;;;;;3.85;0.60;;;11.60;82.80;;;;;;5035314;28;20505;-68
2022/02/02 07:49:22;;;;;;;2.67;0.50;;;11.70;82.80;;;;;;5064931;28;20029;-68
2022/02/02 07:51:52;;;;;;;6.97;1.70;;;11.70;82.50;;;;;;5056225;28;20667;-68
2022/02/02 07:54:22;;;;;;;4.10;0.93;;;11.80;82.30;;;;;;5052769;28;20048;-68
2022/02/02 07:56:49;;;;;;;4.63;0.90;;;11.80;82.10;;;;;;5053121;28;20588;-69
2022/02/02 07:59:40;;;;;;;3.05;0.70;;;11.70;81.90;;;;;;5053220;28;20032;-68
2022/02/02 08:02:06;;;;;;;4.25;0.88;;;11.80;82.10;;;;;;5038397;28;20041;-68
2022/02/02 08:04:32;;;;;;;3.95;0.70;;;11.80;82.20;;;;;;5050158;28;20036;-68
2022/02/02 08:06:58;;;;;;;2.00;0.65;;;11.80;82.30;;;;;;5055770;28;20025;-68
2022/02/02 08:09:30;;;;;;;2.75;0.63;;;11.80;82.40;;;;;;5103859;28;20039;-69
2022/02/02 08:11:57;;;;;;;3.88;0.60;;;11.70;81.60;;;;;;5103853;28;20091;-69
2022/02/02 08:14:24;;;;;;;2.42;0.85;;;11.70;82.00;;;;;;5097293;28;20497;-69
2022/02/02 08:16:49;;;;;;;5.57;0.90;;;11.70;82.60;;;;;;5108709;28;20111;-68
2022/02/02 08:19:17;;;;;;;3.40;0.60;;;11.70;82.00;;;;;;5097553;28;20111;-68
2022/02/02 08:21:44;;;;;;;2.70;0.57;;;11.80;82.20;;;;;;5098025;28;20072;-69
2022/02/02 08:24:09;;;;;;;1.30;0.60;;;11.80;81.90;;;;;;5079959;28;20098;-67
2022/02/02 08:26:35;;;;;;;1.65;0.60;;;11.70;81.80;;;;;;5086676;28;20408;-67
2022/02/02 08:29:01;;;;;;;2.45;0.40;;;11.70;81.90;;;;;;5107489;28;20016;-67
2022/02/02 08:31:27;;;;;;;2.28;0.50;;;11.70;81.90;;;;;;5099781;28;20050;-67
2022/02/02 08:33:58;;;;;;;1.65;0.40;;;11.70;81.80;;;;;;5099903;28;20028;-68
2022/02/02 08:36:23;;;;;;;1.65;0.30;;;11.70;82.10;;;;;;5092152;28;20035;-67
2022/02/02 08:43:58;;;;;;;3.67;0.50;;;11.90;82.50;;;;;;5091910;28;20024;-69
2022/02/02 08:46:30;;;;;;;1.55;0.50;;;11.90;82.00;;;;;;5091135;28;20024;-69
2022/02/02 08:48:57;;;;;;;2.30;0.35;;;11.90;82.10;;;;;;5093872;28;20380;-69
2022/02/02 08:51:27;;;;;;;1.33;0.38;;;11.80;82.00;;;;;;5089833;28;20024;-69
2022/02/02 08:59:38;;;;;;;1.25;0.40;;;11.80;82.50;;;;;;5095000;28;20089;-70
2022/02/02 09:02:09;;;;;;;1.70;0.40;;;11.80;82.40;;;;;;5093497;28;20047;-69
2022/02/02 09:07:19;;;;;;;2.83;0.47;;;12.00;82.70;;;;;;5108819;28;20054;-69
2022/02/02 09:21:05;;;;;;;0.85;0.40;;;12.10;82.90;;;;;;5093451;28;20035;-68
2022/02/02 09:25:43;;;;;;;0.88;0.40;;;12.00;82.80;;;;;;5099538;28;20052;-68
2022/02/02 09:36:01;;;;;;;0.60;0.28;;;12.00;83.30;;;;;;5094380;28;20043;-68
2022/02/02 09:38:27;;;;;;;1.95;0.50;;;12.00;83.40;;;;;;5101195;28;20023;-68
2022/02/02 09:43:24;;;;;;;3.65;0.40;;;11.90;83.10;;;;;;5090761;28;20028;-68
2022/02/02 09:46:07;;;;;;;1.42;0.50;;;11.80;83.00;;;;;;5074578;28;20423;-68
2022/02/02 09:48:44;;;;;;;2.20;0.47;;;11.80;83.10;;;;;;5089830;28;20516;-68
2022/02/02 09:51:13;;;;;;;3.30;0.70;;;11.80;83.30;;;;;;5093676;28;20028;-68
2022/02/02 10:04:17;;;;;;;3.45;0.70;;;11.90;82.80;;;;;;5102532;28;20023;-68
2022/02/02 10:07:11;;;;;;;3.90;0.93;;;11.90;82.70;;;;;;5088127;28;20034;-69
2022/02/02 10:12:42;;;;;;;2.92;0.82;;;11.90;82.40;;;;;;5088907;28;20040;-69
2022/02/02 10:15:32;;;;;;;4.70;0.88;;;11.80;82.20;;;;;;5095750;28;20745;-68
2022/02/02 10:18:05;;;;;;;5.35;1.02;;;11.90;82.40;;;;;;5079571;28;20040;-69
2022/02/02 10:20:32;;;;;;;4.20;0.80;;;11.90;82.40;;;;;;5100526;28;20047;-68
2022/02/02 10:23:00;;;;;;;4.13;0.98;;;11.90;82.40;;;;;;5091015;28;20052;-69
2022/02/02 10:25:43;;;;;;;5.65;0.93;;;12.00;82.30;;;;;;5096464;28;20063;-71
2022/02/02 10:28:17;;;;;;;4.68;1.02;;;12.00;82.30;;;;;;5096660;28;20029;-73
2022/02/02 10:30:48;;;;;;;5.30;0.80;;;12.00;82.40;;;;;;5105673;27;20400;-73
2022/02/02 10:33:17;;;;;;;3.75;1.00;;;12.00;82.20;;;;;;5094426;28;20027;-73
2022/02/02 10:35:45;;;;;;;6.82;1.30;;;12.10;82.30;;;;;;5084180;28;20115;-73
2022/02/02 10:38:14;;;;;;;3.78;1.05;;;12.10;81.90;;;;;;5096921;28;20024;-72
2022/02/02 10:40:55;;;;;;;6.50;1.00;;;12.10;82.00;;;;;;5091086;28;20028;-72
2022/02/02 10:43:39;;;;;;;4.80;1.10;;;12.20;82.20;;;;;;5090748;28;20032;-71
2022/02/02 10:49:06;;;;;;;4.80;1.33;;;12.10;81.50;;;;;;5089208;28;20442;-71
2022/02/02 11:07:09;;;;;;;6.20;1.30;;;12.30;81.40;;;;;;5091777;28;20022;-71
2022/02/02 11:09:35;;;;;;;4.97;0.82;;;12.30;81.10;;;;;;5095168;28;20050;-71
2022/02/02 11:12:03;;;;;;;5.38;1.10;;;12.40;81.20;;;;;;5088018;28;20055;-72
2022/02/02 11:14:49;;;;;;;6.28;1.13;;;12.30;80.60;;;;;;5077017;28;20032;-71
2022/02/02 11:17:53;;;;;;;5.93;1.02;;;12.30;80.90;;;;;;5090151;28;20073;-70
2022/02/02 11:20:22;;;;;;;4.40;1.00;;;12.30;80.90;;;;;;5030480;28;20092;-72
2022/02/02 11:22:49;;;;;;;6.38;1.23;;;12.30;80.50;;;;;;5030634;28;20026;-71
2022/02/02 11:25:15;;;;;;;3.70;0.80;;;12.30;80.80;;;;;;5014399;28;20096;-73
2022/02/02 11:27:46;;;;;;;5.68;1.17;;;12.30;80.70;;;;;;5030884;28;20127;-74
2022/02/02 11:30:23;;;;;;;5.63;1.35;;;12.30;80.90;;;;;;5022825;28;20073;-76
2022/02/02 11:32:58;;;;;;;5.55;1.25;;;12.30;82.30;;;;;;5031472;28;20108;-72
2022/02/02 11:35:46;;;;;;;2.97;1.08;;;12.40;80.90;;;;;;5032203;28;20071;-72
2022/02/02 11:38:26;;;;;;;8.38;1.42;;;12.40;80.90;;;;;;5027138;28;20041;-76
2022/02/02 11:41:04;;;;;;;9.07;1.58;;;12.40;80.90;;;;;;5030194;28;20398;-77
2022/02/02 11:49:58;;;;;;;5.90;1.00;;;12.60;81.70;;;;;;5027359;28;20033;-62
2022/02/02 11:52:34;;;;;;;3.67;1.10;;;12.80;81.20;;;;;;5030987;28;20041;-61
2022/02/02 11:55:00;;;;;;;5.80;1.20;;;12.90;80.60;;;;;;5022016;28;20042;-74
2022/02/02 11:57:35;;;;;;;4.80;1.30;;;12.90;79.70;;;;;;5070506;28;20666;-72
2022/02/02 12:00:21;;;;;;;5.63;1.40;;;12.70;79.50;;;;;;5091370;28;20012;-72
2022/02/02 12:28:01;;;;;;;4.43;1.10;;;12.70;79.60;;;;;;5089929;28;20466;-74
2022/02/02 13:00:14;;;;;;;6.80;1.65;;;13.00;77.10;;;;;;5101943;28;20019;-74
2022/02/02 13:02:42;;;;;;;6.57;1.38;;;12.90;77.80;;;;;;5081880;28;20026;-69
2022/02/02 13:05:10;;;;;;;5.60;1.10;;;13.00;77.80;;;;;;5086470;28;20074;-69
2022/02/02 13:07:37;;;;;;;5.38;1.08;;;13.00;78.20;;;;;;5101622;28;20036;-69
2022/02/02 13:10:08;;;;;;;4.85;1.20;;;13.00;78.10;;;;;;5091157;28;20054;-69
2022/02/02 13:12:39;;;;;;;4.88;1.33;;;13.10;77.70;;;;;;5082582;28;20135;-69
2022/02/02 13:21:45;;;;;;;5.45;0.93;;;13.10;77.90;;;;;;5083749;28;20035;-69
2022/02/02 13:26:56;;;;;;;5.53;1.70;;;13.00;77.60;;;;;;5097524;28;20028;-67
2022/02/02 13:29:28;;;;;;;4.63;1.23;;;13.10;77.90;;;;;;5086852;28;20032;-69
2022/02/02 13:32:14;;;;;;;5.00;1.35;;;13.10;77.30;;;;;;5090980;28;20079;-68
2022/02/02 13:37:43;;;;;;;6.78;1.45;;;13.00;76.90;;;;;;5093498;28;20020;-69
2022/02/02 14:01:48;;;;;;;3.75;1.15;;;12.90;76.60;;;;;;5097811;28;20118;-69
2022/02/02 14:26:09;;;;;;;4.30;1.10;;;13.10;76.30;;;;;;5088776;28;20031;-69
2022/02/02 14:31:23;;;;;;;6.72;1.58;;;13.00;75.40;;;;;;5089852;28;20104;-69
2022/02/02 14:33:52;;;;;;;6.90;1.33;;;13.00;75.70;;;;;;5105968;28;20028;-70
2022/02/02 14:36:22;;;;;;;4.78;1.50;;;13.00;75.60;;;;;;5080374;28;20044;-71
2022/02/02 14:46:36;;;;;;;5.38;1.50;;;12.90;75.20;;;;;;5089490;28;20024;-71
2022/02/02 14:49:29;;;;;;;5.18;1.60;;;12.90;75.20;;;;;;5075907;28;20019;-74
2022/02/02 14:52:02;;;;;;;5.75;1.30;;;12.90;75.40;;;;;;5085255;28;20047;-73
2022/02/02 15:29:17;;;;;;;5.35;1.58;;;12.80;74.90;;;;;;5084825;28;20024;-72
2022/02/02 15:31:43;;;;;;;6.10;1.60;;;12.70;74.70;;;;;;5069876;28;20028;-72
2022/02/02 15:34:14;;;;;;;3.67;1.30;;;12.70;74.70;;;;;;5071950;28;20576;-72
2022/02/02 15:39:13;;;;;;;6.50;1.45;;;12.70;74.80;;;;;;5084939;28;20024;-72
2022/02/02 16:03:16;;;;;;;5.88;1.27;;;12.60;74.90;;;;;;5091010;28;20078;-72
2022/02/02 16:08:09;;;;;;;5.45;1.20;;;12.60;74.10;;;;;;5087753;28;20053;-72
2022/02/02 16:13:27;;;;;;;4.93;1.23;;;12.50;74.00;;;;;;5089626;28;20048;-73
2022/02/02 16:16:01;;;;;;;3.65;1.10;;;12.50;74.10;;;;;;5077488;28;20126;-72
2022/02/02 16:18:38;;;;;;;4.20;1.10;;;12.50;73.90;;;;;;5085029;28;20028;-72
2022/02/02 16:37:30;;;;;;;3.28;1.13;;;12.40;73.90;;;;;;5092711;28;20062;-71
2022/02/02 16:39:59;;;;;;;4.30;1.55;;;12.40;73.60;;;;;;5078376;28;20413;-70
2022/02/02 16:45:12;;;;;;;4.40;1.40;;;12.30;73.80;;;;;;5088128;28;20066;-71
2022/02/02 16:47:38;;;;;;;3.25;1.50;;;12.30;73.90;;;;;;5084075;28;20139;-71
2022/02/02 16:50:05;;;;;;;4.53;1.70;;;12.20;73.50;;;;;;5095218;27;20460;-70
2022/02/02 16:52:33;;;;;;;3.80;1.50;;;12.20;74.10;;;;;;5091216;28;20032;-71
2022/02/02 16:55:03;;;;;;;3.67;1.30;;;12.20;74.00;;;;;;5077560;28;20029;-71
2022/02/02 16:57:52;;;;;;;3.42;1.48;;;12.10;73.50;;;;;;5085035;28;20028;-71
2022/02/02 17:34:55;;;;;;;2.45;1.55;;;12.00;73.70;;;;;;5080647;28;20031;-71
2022/02/02 17:40:11;;;;;;;4.32;1.60;;;12.00;74.00;;;;;;5077510;28;20023;-70
2022/02/02 18:12:26;;;;;;;3.35;2.05;;;11.50;74.70;;;;;;5084701;28;20030;-69
2022/02/02 18:20:27;;;;;;;4.95;2.20;;;11.50;73.70;;;;;;5089145;28;20079;-72
2022/02/02 18:23:03;;;;;;;2.13;1.42;;;11.50;73.80;;;;;;5092600;28;20027;-70
2022/02/02 18:25:54;;;;;;;3.40;2.10;;;11.40;73.80;;;;;;5084837;28;20015;-70
2022/02/02 18:28:33;;;;;;;2.05;1.60;;;11.40;73.80;;;;;;5091487;28;20020;-70
2022/02/02 18:33:49;;;;;;;4.22;2.33;;;11.30;74.00;;;;;;5100274;28;20024;-68
2022/02/02 18:36:29;;;;;;;2.92;1.83;;;11.40;74.70;;;;;;5090605;28;20176;-67
2022/02/02 18:52:34;;;;;;;4.15;2.63;;;11.40;73.30;;;;;;5079589;28;20036;-68
2022/02/02 19:40:10;;;;;;;4.75;2.25;;;10.60;75.00;;;;;;5038655;28;20040;-69
2022/02/02 20:07:00;;;;;;;6.72;4.05;;;10.50;75.10;;;;;;4971159;28;20062;-70
2022/02/02 20:12:13;;;;;;;5.75;3.38;;;10.30;74.80;;;;;;5005339;28;20084;-69
2022/02/02 20:14:41;;;;;;;6.65;3.97;;;10.20;75.40;;;;;;4988931;28;20033;-69
2022/02/02 20:17:10;;;;;;;7.88;4.10;;;10.20;75.90;;;;;;5016150;28;20054;-69
2022/02/02 20:19:39;;;;;;;8.82;4.30;;;10.20;76.30;;;;;;5006710;28;20091;-69
2022/02/02 20:22:05;;;;;;;8.02;4.30;;;10.40;76.30;;;;;;5003926;28;20041;-69
2022/02/02 20:24:38;;;;;;;7.70;5.35;;;10.40;76.60;;;;;;5006101;28;20026;-69
2022/02/02 20:27:04;;;;;;;10.50;5.45;;;10.60;76.00;;;;;;5005482;28;20038;-71
2022/02/02 20:29:32;;;;;;;9.23;5.05;;;10.60;76.00;;;;;;5005827;28;20116;-72
2022/02/02 20:31:57;;;;;;;8.38;5.47;;;10.60;75.90;;;;;;5000792;28;20038;-68
2022/02/02 20:34:24;;;;;;;9.35;5.55;;;10.70;75.90;;;;;;4994400;28;20594;-69
2022/02/02 20:36:49;;;;;;;12.45;6.22;;;10.60;75.20;;;;;;5085679;28;20040;-69
2022/02/02 20:39:33;;;;;;;8.30;4.78;;;10.60;75.90;;;;;;5102555;28;20057;-68
2022/02/02 20:42:03;;;;;;;9.30;5.30;;;10.70;75.90;;;;;;5099439;28;20024;-69
2022/02/02 20:44:47;;;;;;;8.43;4.82;;;10.70;75.40;;;;;;5076067;28;20020;-69
2022/02/02 21:01:38;;;;;;;6.75;4.38;;;10.90;75.50;;;;;;5091449;28;20415;-72
2022/02/02 21:11:12;;;;;;;6.90;4.13;;;11.00;75.60;;;;;;5077934;28;20538;-70
2022/02/02 21:13:46;;;;;;;9.02;4.43;;;11.10;75.70;;;;;;5101964;28;20147;-69
2022/02/02 21:16:15;;;;;;;6.97;4.72;;;11.10;75.20;;;;;;5090848;28;20050;-70
2022/02/02 21:18:42;;;;;;;11.23;6.15;;;11.10;75.10;;;;;;5088064;28;20024;-69
2022/02/02 21:21:23;;;;;;;9.35;6.10;;;10.90;74.50;;;;;;5091357;28;20024;-71
2022/02/02 21:26:49;;;;;;;13.63;7.10;;;11.00;75.60;;;;;;5102029;28;20407;-71
2022/02/02 21:29:16;;;;;;;9.05;5.80;;;11.00;75.20;;;;;;5093483;28;20024;-68
2022/02/02 21:31:42;;;;;;;10.73;6.90;;;11.00;75.60;;;;;;5089596;28;20044;-69
2022/02/02 21:34:08;;;;;;;10.20;6.28;;;11.00;75.80;;;;;;5107636;28;20059;-69
2022/02/02 21:36:34;;;;;;;10.50;6.38;;;11.10;75.70;;;;;;5093826;28;20089;-69
2022/02/02 21:39:08;;;;;;;9.13;5.75;;;11.20;75.40;;;;;;5092557;28;20106;-70
2022/02/02 21:41:37;;;;;;;10.50;6.38;;;11.10;75.30;;;;;;5092795;28;20028;-68
2022/02/02 21:44:09;;;;;;;9.18;5.88;;;11.10;75.10;;;;;;5081733;28;20440;-69
2022/02/02 21:46:34;;;;;;;9.02;5.07;;;11.10;75.30;;;;;;5103194;28;20823;-70
2022/02/02 21:49:01;;;;;;;8.07;5.05;;;11.10;75.40;;;;;;5098127;28;20036;-70
2022/02/02 21:51:32;;;;;;;7.07;4.75;;;11.10;75.20;;;;;;5092678;28;20031;-70
2022/02/02 21:53:58;;;;;;;8.13;4.60;;;11.10;75.30;;;;;;5098194;28;20031;-70
2022/02/02 21:56:24;;;;;;;8.15;5.07;;;11.10;75.50;;;;;;5085413;28;20036;-70
2022/02/02 21:58:51;;;;;;;7.28;4.88;;;11.20;75.50;;;;;;5091141;28;20027;-70
2022/02/02 22:01:17;;;;;;;6.82;4.07;;;11.10;75.00;;;;;;5104639;28;20024;-69
2022/02/02 22:03:43;;;;;;;7.45;5.15;;;11.20;75.70;;;;;;5096936;28;20059;-70
2022/02/02 22:06:09;;;;;;;9.15;5.30;;;11.10;75.00;;;;;;5091576;28;20396;-69
2022/02/02 22:08:35;;;;;;;7.40;4.78;;;11.10;75.50;;;;;;5092251;28;20396;-69
2022/02/02 22:11:01;;;;;;;8.18;5.90;;;11.10;75.40;;;;;;5097268;28;20032;-69
2022/02/02 22:13:39;;;;;;;7.18;5.20;;;11.00;75.10;;;;;;5101853;28;20520;-70
2022/02/02 22:16:10;;;;;;;6.03;4.43;;;11.00;75.60;;;;;;5111074;28;20093;-69
2022/02/02 22:18:38;;;;;;;9.55;5.30;;;11.00;75.50;;;;;;5093742;28;20070;-69
2022/02/02 22:21:04;;;;;;;7.75;5.03;;;11.10;76.00;;;;;;5097516;28;20046;-69
2022/02/02 22:23:30;;;;;;;7.32;5.05;;;11.20;75.70;;;;;;5102403;28;20028;-70
2022/02/02 22:25:57;;;;;;;7.90;5.03;;;11.10;75.60;;;;;;5098154;28;20111;-70
2022/02/02 22:28:23;;;;;;;6.40;4.38;;;11.20;75.60;;;;;;5093013;28;20577;-69
2022/02/02 22:30:49;;;;;;;6.97;4.85;;;11.20;75.40;;;;;;5093760;28;20042;-71
2022/02/02 22:33:15;;;;;;;8.82;4.82;;;11.20;75.20;;;;;;5110299;27;20111;-70
2022/02/02 22:35:40;;;;;;;6.28;4.03;;;11.20;75.40;;;;;;5092402;28;20028;-71
2022/02/02 22:38:08;;;;;;;6.38;3.95;;;11.20;75.40;;;;;;5087271;28;20031;-69
2022/02/02 22:40:34;;;;;;;8.75;4.95;;;11.20;75.10;;;;;;5094385;28;20515;-69
2022/02/02 22:42:59;;;;;;;7.72;4.95;;;11.20;75.40;;;;;;5096996;28;20020;-69
2022/02/02 22:45:25;;;;;;;8.07;5.15;;;11.20;75.20;;;;;;5092045;28;20048;-68
2022/02/02 22:47:51;;;;;;;6.53;4.55;;;11.20;75.50;;;;;;5094156;28;20544;-68
2022/02/02 22:50:20;;;;;;;22.00;11.80;;;11.10;75.00;;;;;;5091620;28;20031;-69
2022/02/02 22:52:49;;;;;;;10.85;6.72;;;11.10;75.20;;;;;;5073206;28;20039;-68
2022/02/02 22:55:17;;;;;;;8.65;5.63;;;11.00;74.90;;;;;;5095086;28;20032;-68
2022/02/02 22:57:42;;;;;;;12.60;7.88;;;11.00;75.00;;;;;;5091980;28;20051;-69
2022/02/02 23:00:15;;;;;;;8.45;5.22;;;10.90;75.40;;;;;;5094938;28;20476;-69
2022/02/02 23:02:56;;;;;;;7.70;5.67;;;11.00;75.50;;;;;;5096264;28;20036;-71
2022/02/02 23:05:30;;;;;;;8.48;4.90;;;10.90;75.20;;;;;;5074752;28;20031;-71
2022/02/02 23:07:55;;;;;;;7.30;4.43;;;10.90;74.90;;;;;;5096330;28;20031;-69
2022/02/02 23:10:21;;;;;;;7.10;5.32;;;10.90;75.10;;;;;;5093973;28;20028;-69
2022/02/02 23:12:48;;;;;;;6.72;4.78;;;10.90;75.30;;;;;;5097290;28;20040;-70
2022/02/02 23:15:24;;;;;;;6.18;4.72;;;10.80;75.20;;;;;;5096655;28;20107;-70
2022/02/02 23:17:50;;;;;;;5.95;4.75;;;10.70;74.80;;;;;;5097493;28;20035;-70
2022/02/02 23:20:16;;;;;;;7.28;5.22;;;10.60;74.90;;;;;;5096050;28;20027;-70
2022/02/02 23:22:44;;;;;;;6.90;5.22;;;10.60;75.20;;;;;;5091852;28;20048;-69
2022/02/02 23:25:13;;;;;;;7.60;5.28;;;10.60;75.60;;;;;;5101424;28;20035;-69
2022/02/02 23:27:45;;;;;;;8.40;5.28;;;10.60;75.70;;;;;;5097303;28;20028;-69
2022/02/02 23:30:16;;;;;;;7.68;4.40;;;10.60;75.80;;;;;;5097519;28;20069;-70
2022/02/02 23:32:43;;;;;;;5.55;4.65;;;10.70;76.10;;;;;;5096528;28;20115;-70
2022/02/02 23:35:09;;;;;;;5.60;4.25;;;10.70;75.50;;;;;;5101528;28;20031;-70
2022/02/02 23:37:38;;;;;;;5.07;4.38;;;10.60;75.30;;;;;;5093951;28;20097;-69
2022/02/02 23:40:05;;;;;;;7.60;4.38;;;10.60;75.90;;;;;;5098638;28;20518;-70
2022/02/02 23:42:36;;;;;;;7.15;4.85;;;10.70;75.70;;;;;;5097382;28;20115;-69
2022/02/02 23:45:03;;;;;;;8.95;5.22;;;10.70;76.00;;;;;;5097573;28;20103;-70
2022/02/02 23:47:31;;;;;;;7.95;5.47;;;10.70;75.40;;;;;;5097156;28;20028;-70
2022/02/02 23:50:01;;;;;;;6.28;5.07;;;10.70;76.00;;;;;;5091983;28;20023;-69
2022/02/02 23:52:37;;;;;;;7.28;5.20;;;10.70;75.80;;;;;;5090073;28;20036;-69
2022/02/02 23:55:06;;;;;;;8.30;6.32;;;10.70;75.90;;;;;;5097627;28;20387;-71
2022/02/02 23:58:39;;;;;;;6.15;5.25;;;10.70;75.00;;;;;;5095637;28;20032;-70
